Time;durP1;ratioP1;P1;durP2;ratioP2;P2;SDS_P1;SDS_P2;PMS_P1;PMS_P2;Temp;Humidity;BMP_temperature;BMP_pressure;BME280_temperature;BME280_humidity;BME280_pressure;Samples;Min_cycle;Max_cycle;Signal;HPM_P1;HPM_P2
2022/02/08 00:01:44;;;;;;;72.30;52.95;;;23.70;99.90;;;;;;4196461;28;20032;-64
2022/02/08 00:03:48;;;;;;;72.85;54.15;;;23.70;99.90;;;;;;4194943;28;20067;-64
2022/02/08 00:06:17;;;;;;;73.90;54.90;;;23.70;99.90;;;;;;4192005;28;20052;-64
2022/02/08 00:08:17;;;;;;;67.53;53.17;;;23.70;99.90;;;;;;4189262;28;20041;-63
2022/02/08 00:10:23;;;;;;;65.20;51.70;;;23.70;99.90;;;;;;4192906;28;20498;-64
2022/02/08 00:12:27;;;;;;;67.57;52.97;;;23.70;99.90;;;;;;4190431;28;20040;-63
2022/02/08 00:14:32;;;;;;;67.05;52.15;;;23.80;99.90;;;;;;4193394;28;20094;-64
2022/02/08 00:16:36;;;;;;;64.38;52.55;;;23.80;99.90;;;;;;4194149;28;20142;-64
2022/02/08 00:18:40;;;;;;;64.20;51.35;;;23.70;99.90;;;;;;4192518;28;20049;-64
2022/02/08 00:20:45;;;;;;;67.72;51.33;;;23.80;99.90;;;;;;4193513;28;20036;-64
2022/02/08 00:22:50;;;;;;;68.32;50.95;;;23.90;99.90;;;;;;4192409;28;20040;-64
2022/02/08 00:24:54;;;;;;;68.88;51.85;;;23.90;99.90;;;;;;4184611;28;20045;-63
2022/02/08 00:27:00;;;;;;;63.83;50.47;;;23.90;99.90;;;;;;4191509;28;20070;-65
2022/02/08 00:29:05;;;;;;;66.72;53.15;;;23.90;99.90;;;;;;4194249;28;20041;-63
2022/02/08 00:31:09;;;;;;;70.43;54.25;;;23.90;99.90;;;;;;4195427;28;20448;-64
2022/02/08 00:33:13;;;;;;;70.10;53.38;;;23.90;99.90;;;;;;4195550;28;20045;-64
2022/02/08 00:35:18;;;;;;;67.97;53.88;;;23.90;99.90;;;;;;4195614;28;20139;-64
2022/02/08 00:37:23;;;;;;;70.57;54.63;;;23.90;99.90;;;;;;4193495;28;20478;-64
2022/02/08 00:39:29;;;;;;;65.57;53.15;;;23.90;99.90;;;;;;4193845;28;20052;-64
2022/02/08 00:41:35;;;;;;;65.88;53.13;;;24.00;99.90;;;;;;4195029;28;20093;-64
2022/02/08 00:45:55;;;;;;;68.15;52.75;;;24.10;99.90;;;;;;4193389;28;20033;-64
2022/02/08 00:48:14;;;;;;;72.13;57.28;;;24.10;99.90;;;;;;4195498;28;20199;-63
2022/02/08 00:50:18;;;;;;;76.38;57.15;;;24.10;99.90;;;;;;4194490;28;20071;-63
2022/02/08 00:52:22;;;;;;;72.70;55.95;;;24.20;99.90;;;;;;4193482;28;20055;-64
2022/02/08 00:54:26;;;;;;;69.07;51.90;;;24.20;99.90;;;;;;4193399;28;20067;-64
2022/02/08 00:56:31;;;;;;;69.70;51.40;;;24.30;99.90;;;;;;4191980;28;20063;-65
2022/02/08 00:58:35;;;;;;;68.20;50.83;;;24.30;99.90;;;;;;4194684;28;20051;-66
2022/02/08 01:00:40;;;;;;;62.20;50.28;;;24.30;99.90;;;;;;4193940;28;20117;-65
2022/02/08 01:02:44;;;;;;;66.28;49.63;;;24.30;99.90;;;;;;4208005;28;20040;-66
2022/02/08 01:04:54;;;;;;;60.53;47.72;;;24.30;99.90;;;;;;4194286;28;20032;-65
2022/02/08 01:06:59;;;;;;;61.88;49.35;;;24.40;99.90;;;;;;4194577;28;20042;-65
2022/02/08 01:11:21;;;;;;;60.38;48.80;;;24.50;99.90;;;;;;4209059;28;20048;-65
2022/02/08 01:13:25;;;;;;;60.25;48.45;;;24.50;99.90;;;;;;4195668;28;20057;-65
2022/02/08 01:15:30;;;;;;;60.97;49.30;;;24.50;99.90;;;;;;4194255;28;20086;-67
2022/02/08 01:17:35;;;;;;;60.85;47.20;;;24.60;99.90;;;;;;4192633;28;20064;-65
2022/02/08 01:19:46;;;;;;;57.38;46.30;;;24.60;99.90;;;;;;4193653;28;20707;-66
2022/02/08 01:21:51;;;;;;;56.83;46.15;;;24.60;99.90;;;;;;4193381;28;20046;-64
2022/02/08 01:23:55;;;;;;;57.88;44.92;;;24.70;99.90;;;;;;4208509;28;20032;-64
2022/02/08 01:26:00;;;;;;;51.80;43.20;;;24.80;99.90;;;;;;4195105;28;20175;-64
2022/02/08 01:30:40;;;;;;;49.92;43.05;;;24.80;99.90;;;;;;4193901;28;20063;-64
2022/02/08 01:40:04;;;;;;;102.07;46.53;;;25.00;99.90;;;;;;4193822;28;20044;-63
2022/02/08 01:42:29;;;;;;;78.60;42.10;;;25.10;99.80;;;;;;4194691;28;20469;-65
2022/02/08 01:44:37;;;;;;;56.33;40.10;;;25.10;99.60;;;;;;4196406;28;20098;-64
2022/02/08 01:51:15;;;;;;;47.30;38.17;;;25.30;99.20;;;;;;4196423;28;20095;-65
2022/02/08 01:53:19;;;;;;;48.17;39.85;;;25.30;98.90;;;;;;4196528;28;20067;-64
2022/02/08 01:55:24;;;;;;;53.10;39.97;;;25.30;98.80;;;;;;4195136;28;20044;-65
2022/02/08 01:57:48;;;;;;;46.58;39.72;;;25.30;98.70;;;;;;4194630;28;20044;-64
2022/02/08 01:59:53;;;;;;;51.17;39.28;;;25.30;98.70;;;;;;4197728;28;20098;-63
2022/02/08 02:01:57;;;;;;;44.88;37.70;;;25.40;98.70;;;;;;4196102;28;20044;-64
2022/02/08 02:04:02;;;;;;;45.58;35.38;;;25.40;98.70;;;;;;4193607;28;20044;-64
2022/02/08 02:06:18;;;;;;;43.00;35.38;;;25.50;98.60;;;;;;4196139;28;20426;-64
2022/02/08 02:08:23;;;;;;;41.63;33.65;;;25.60;97.70;;;;;;4192206;28;20047;-63
2022/02/08 02:10:31;;;;;;;42.55;34.83;;;25.60;97.80;;;;;;4196258;28;20051;-64
2022/02/08 02:12:38;;;;;;;43.08;35.35;;;25.70;97.60;;;;;;4196103;28;20040;-64
2022/02/08 02:14:42;;;;;;;45.83;34.83;;;25.80;97.40;;;;;;4195649;28;20040;-64
2022/02/08 02:19:03;;;;;;;49.10;41.08;;;25.90;97.10;;;;;;4210205;28;20039;-64
2022/02/08 02:21:12;;;;;;;56.42;46.80;;;26.00;96.50;;;;;;4196248;28;20041;-64
2022/02/08 02:23:17;;;;;;;57.63;45.90;;;26.10;96.50;;;;;;4196805;28;20573;-64
2022/02/08 02:25:29;;;;;;;51.60;44.00;;;26.10;96.40;;;;;;4198976;28;20131;-64
2022/02/08 02:27:34;;;;;;;45.97;37.65;;;26.10;95.90;;;;;;4197072;28;20043;-64
2022/02/08 02:29:38;;;;;;;42.05;34.08;;;26.20;95.90;;;;;;4197487;28;20140;-64
2022/02/08 02:31:43;;;;;;;49.30;37.90;;;26.20;96.20;;;;;;4193951;28;20792;-64
2022/02/08 02:33:49;;;;;;;47.17;37.35;;;26.30;96.30;;;;;;4196088;28;20501;-64
2022/02/08 02:35:56;;;;;;;46.92;36.75;;;26.40;96.40;;;;;;4195937;28;20040;-64
2022/02/08 02:38:03;;;;;;;49.63;37.22;;;26.40;96.40;;;;;;4193520;28;20075;-64
2022/02/08 02:40:14;;;;;;;45.25;37.35;;;26.40;96.30;;;;;;4178968;28;20103;-64
2022/02/08 02:42:18;;;;;;;48.67;34.83;;;26.50;96.10;;;;;;4197070;28;20075;-65
2022/02/08 02:44:24;;;;;;;48.65;35.08;;;26.60;96.70;;;;;;4193994;28;20063;-64
2022/02/08 02:46:31;;;;;;;43.92;35.60;;;26.70;96.20;;;;;;4195553;28;20494;-65
2022/02/08 02:48:36;;;;;;;43.92;33.80;;;26.70;95.90;;;;;;4197092;28;20041;-64
2022/02/08 02:50:40;;;;;;;44.17;36.05;;;26.80;95.40;;;;;;4193075;28;20167;-65
2022/02/08 02:52:47;;;;;;;41.38;33.67;;;26.80;95.00;;;;;;4195740;28;20063;-65
2022/02/08 02:54:52;;;;;;;40.83;30.42;;;26.70;95.10;;;;;;4209604;28;20041;-65
2022/02/08 02:56:59;;;;;;;36.70;30.08;;;26.80;95.10;;;;;;4210055;28;20052;-64
2022/02/08 02:59:06;;;;;;;38.15;30.17;;;27.00;94.80;;;;;;4195565;28;20730;-65
2022/02/08 03:19:27;;;;;;;40.67;27.90;;;27.20;94.50;;;;;;4211544;28;20048;-65
2022/02/08 03:21:31;;;;;;;34.33;27.85;;;27.30;94.70;;;;;;4195219;28;20036;-65
2022/02/08 03:23:36;;;;;;;33.15;27.38;;;27.60;93.60;;;;;;4193200;28;20071;-62
2022/02/08 03:25:43;;;;;;;40.33;27.88;;;27.70;94.20;;;;;;4194766;28;20033;-64
2022/02/08 03:27:53;;;;;;;34.95;25.80;;;27.70;92.60;;;;;;4191537;28;20059;-64
2022/02/08 03:29:57;;;;;;;33.17;26.38;;;27.60;93.20;;;;;;4195560;28;20044;-63
2022/02/08 03:32:03;;;;;;;33.42;25.58;;;27.60;93.20;;;;;;4194827;28;20486;-64
2022/02/08 03:34:07;;;;;;;34.00;24.52;;;27.80;93.00;;;;;;4194939;28;20071;-64
2022/02/08 03:36:16;;;;;;;33.50;26.20;;;27.80;93.40;;;;;;4192219;28;20132;-64
2022/02/08 03:38:31;;;;;;;33.45;25.40;;;27.80;93.70;;;;;;4195594;28;20072;-64
2022/02/08 03:40:42;;;;;;;32.00;25.13;;;27.80;93.80;;;;;;4195787;28;20522;-64
2022/02/08 03:43:09;;;;;;;33.33;24.75;;;27.80;94.00;;;;;;4193547;28;20044;-64
2022/02/08 03:45:15;;;;;;;29.30;23.77;;;27.90;93.90;;;;;;4194511;28;20051;-64
2022/02/08 03:47:20;;;;;;;28.33;23.30;;;28.00;93.30;;;;;;4195726;28;20036;-64
2022/02/08 03:49:30;;;;;;;29.00;23.25;;;28.10;93.20;;;;;;4195200;28;20521;-64
2022/02/08 03:53:54;;;;;;;32.20;22.05;;;28.20;93.20;;;;;;4195685;28;20040;-64
2022/02/08 03:56:06;;;;;;;27.90;22.02;;;28.20;92.90;;;;;;4195589;28;20127;-64
2022/02/08 03:58:12;;;;;;;28.05;22.25;;;28.30;92.80;;;;;;4196616;28;20526;-64
2022/02/08 04:00:18;;;;;;;26.15;21.98;;;28.30;92.70;;;;;;4192407;28;20048;-65
2022/02/08 04:06:49;;;;;;;30.02;22.15;;;28.40;92.30;;;;;;4196995;28;20036;-64
2022/02/08 04:08:55;;;;;;;26.83;21.75;;;28.50;92.30;;;;;;4195903;28;20064;-65
2022/02/08 04:11:00;;;;;;;25.17;21.50;;;28.60;92.10;;;;;;4195334;28;20052;-65
2022/02/08 04:13:12;;;;;;;25.95;21.70;;;28.60;91.70;;;;;;4196436;28;20044;-64
2022/02/08 04:17:40;;;;;;;33.45;22.27;;;28.70;90.60;;;;;;4194647;28;20047;-64
2022/02/08 04:31:22;;;;;;;32.58;22.98;;;28.90;90.30;;;;;;4195022;28;20148;-64
2022/02/08 04:38:19;;;;;;;19.85;17.73;;;29.50;89.00;;;;;;4196252;28;20090;-64
2022/02/08 04:44:50;;;;;;;20.30;17.92;;;29.70;87.50;;;;;;4195762;28;20047;-64
2022/02/08 04:49:08;;;;;;;20.38;17.25;;;29.80;86.40;;;;;;4195241;28;20059;-64
2022/02/08 04:51:21;;;;;;;35.00;24.38;;;29.80;85.80;;;;;;4195654;28;20071;-64
2022/02/08 04:53:34;;;;;;;35.63;22.98;;;29.90;85.50;;;;;;4194552;28;20060;-64
2022/02/08 04:55:57;;;;;;;;;;;30.00;85.40;;;;;;4193466;28;20046;-64
2022/02/08 04:58:20;;;;;;;52.72;31.40;;;30.10;84.90;;;;;;4193273;28;19932;-64
2022/02/08 05:00:34;;;;;;;51.70;30.60;;;30.10;85.40;;;;;;4195219;28;20097;-65
2022/02/08 05:41:28;;;;;;;24.75;20.00;;;30.70;83.40;;;;;;4193321;28;20032;-66
2022/02/08 05:47:59;;;;;;;30.67;21.80;;;30.70;83.40;;;;;;4191806;28;20083;-65
2022/02/08 05:50:11;;;;;;;22.00;18.55;;;30.70;83.70;;;;;;4192038;28;20048;-65
2022/02/08 05:54:20;;;;;;;22.83;18.42;;;30.70;82.70;;;;;;4194584;28;20426;-65
2022/02/08 05:56:24;;;;;;;27.50;21.08;;;30.60;83.40;;;;;;4191909;28;20498;-65
2022/02/08 05:58:28;;;;;;;25.40;19.60;;;30.60;83.40;;;;;;4192273;28;20052;-65
2022/02/08 06:00:32;;;;;;;24.75;18.27;;;30.70;83.70;;;;;;4194454;28;20520;-65
2022/02/08 06:02:56;;;;;;;;;;;30.70;83.70;;;;;;4192394;28;20045;-65
2022/02/08 06:05:12;;;;;;;25.30;18.45;;;30.60;83.20;;;;;;4190770;28;19921;-66
2022/02/08 06:07:20;;;;;;;20.30;17.13;;;30.50;83.30;;;;;;4189275;28;20041;-66
2022/02/08 06:09:25;;;;;;;19.42;17.42;;;30.40;82.00;;;;;;4194138;28;20040;-65
2022/02/08 06:11:29;;;;;;;35.83;23.02;;;30.30;83.10;;;;;;4194365;28;20044;-65
2022/02/08 06:13:33;;;;;;;28.88;21.13;;;30.40;83.90;;;;;;4191250;28;20048;-65
2022/02/08 06:15:39;;;;;;;25.48;21.00;;;30.40;83.70;;;;;;4191178;28;20033;-64
2022/02/08 06:17:44;;;;;;;31.65;22.05;;;30.30;83.70;;;;;;4194789;28;20051;-65
2022/02/08 06:19:47;;;;;;;29.42;23.33;;;30.30;83.70;;;;;;4195093;28;20052;-65
2022/02/08 06:21:52;;;;;;;28.02;20.73;;;30.30;83.60;;;;;;4195226;28;20123;-65
2022/02/08 06:23:56;;;;;;;27.02;20.65;;;30.40;83.50;;;;;;4195258;28;20072;-66
2022/02/08 06:26:00;;;;;;;29.20;23.80;;;30.30;83.30;;;;;;4197933;28;20052;-65
2022/02/08 06:28:04;;;;;;;28.45;20.92;;;30.30;83.80;;;;;;4197454;28;20040;-62
2022/02/08 06:30:10;;;;;;;31.65;20.92;;;30.40;83.70;;;;;;4197919;28;20521;-64
2022/02/08 06:32:14;;;;;;;28.70;21.17;;;30.30;83.40;;;;;;4195822;28;20071;-65
2022/02/08 06:34:22;;;;;;;23.85;16.27;;;30.20;83.50;;;;;;4196442;28;20059;-64
2022/02/08 06:36:26;;;;;;;21.65;16.10;;;30.20;82.30;;;;;;4196349;28;20045;-64
2022/02/08 06:38:31;;;;;;;21.50;16.25;;;30.20;82.30;;;;;;4196423;28;20256;-64
2022/02/08 06:40:37;;;;;;;18.90;15.70;;;30.20;82.40;;;;;;4195058;28;20090;-65
2022/02/08 06:42:42;;;;;;;18.48;15.57;;;30.10;82.00;;;;;;4197602;28;20064;-65
2022/02/08 06:44:46;;;;;;;25.80;16.05;;;30.20;81.10;;;;;;4196594;28;20045;-66
2022/02/08 06:46:51;;;;;;;19.17;15.43;;;30.10;81.60;;;;;;4195124;28;20071;-65
2022/02/08 06:48:56;;;;;;;19.17;16.55;;;30.10;81.40;;;;;;4196503;28;20117;-65
2022/02/08 06:51:01;;;;;;;20.63;17.38;;;30.10;82.50;;;;;;4196520;28;20139;-65
2022/02/08 06:53:06;;;;;;;26.30;19.25;;;30.10;83.00;;;;;;4196829;28;20051;-65
2022/02/08 06:55:11;;;;;;;26.02;18.85;;;30.20;83.70;;;;;;4193975;28;20049;-65
2022/02/08 06:57:16;;;;;;;22.02;17.75;;;30.20;83.90;;;;;;4196393;28;20111;-66
2022/02/08 06:59:20;;;;;;;22.50;17.30;;;30.20;83.80;;;;;;4196781;28;20045;-66
2022/02/08 07:01:30;;;;;;;19.33;16.27;;;30.20;83.70;;;;;;4196513;28;20175;-65
2022/02/08 07:03:35;;;;;;;20.05;15.93;;;30.20;83.20;;;;;;4194745;28;20064;-66
2022/02/08 07:05:39;;;;;;;24.60;17.95;;;30.40;82.80;;;;;;4196518;28;20040;-65
2022/02/08 07:07:44;;;;;;;22.95;18.75;;;30.50;83.00;;;;;;4196040;28;20463;-66
2022/02/08 07:09:48;;;;;;;20.50;18.27;;;30.50;83.20;;;;;;4194926;28;20478;-66
2022/02/08 07:11:56;;;;;;;19.73;16.92;;;30.50;83.40;;;;;;4196550;28;20495;-66
2022/02/08 07:14:02;;;;;;;22.30;17.10;;;30.50;82.50;;;;;;4195534;28;20098;-66
2022/02/08 07:16:07;;;;;;;20.80;15.68;;;30.50;82.40;;;;;;4196670;28;20570;-66
2022/02/08 07:18:11;;;;;;;18.27;15.45;;;30.50;82.60;;;;;;4194072;28;20049;-66
2022/02/08 07:20:16;;;;;;;17.40;15.00;;;30.40;82.60;;;;;;4194305;28;20047;-65
2022/02/08 07:22:21;;;;;;;18.10;14.85;;;30.40;81.50;;;;;;4196343;28;20053;-65
2022/02/08 07:24:26;;;;;;;18.70;14.70;;;30.40;81.10;;;;;;4196347;28;20094;-65
2022/02/08 07:26:31;;;;;;;21.38;14.40;;;30.40;81.20;;;;;;4196610;28;20045;-65
2022/02/08 07:28:41;;;;;;;18.13;15.02;;;30.40;81.50;;;;;;4193888;28;20040;-65
2022/02/08 07:30:45;;;;;;;17.98;14.20;;;30.40;81.60;;;;;;4196235;28;20090;-65
2022/02/08 07:32:53;;;;;;;15.75;13.98;;;30.30;81.90;;;;;;4195963;28;20410;-65
2022/02/08 07:37:30;;;;;;;19.48;15.45;;;30.30;82.30;;;;;;4195993;28;20048;-65
2022/02/08 07:39:43;;;;;;;21.73;15.32;;;30.40;81.40;;;;;;4196043;28;20605;-66
2022/02/08 07:41:47;;;;;;;17.42;14.40;;;30.50;80.80;;;;;;4193036;28;20047;-65
2022/02/08 07:43:51;;;;;;;16.77;13.77;;;30.50;80.20;;;;;;4195833;28;20062;-66
2022/02/08 07:46:06;;;;;;;15.77;14.00;;;30.60;80.80;;;;;;4195229;28;20076;-65
2022/02/08 07:48:11;;;;;;;16.65;13.80;;;30.50;81.00;;;;;;4196068;28;20725;-66
2022/02/08 07:50:20;;;;;;;15.80;14.07;;;30.60;81.00;;;;;;4194872;28;20847;-65
2022/02/08 07:52:25;;;;;;;16.48;13.50;;;30.70;80.60;;;;;;4196172;28;20086;-65
2022/02/08 07:54:29;;;;;;;19.98;13.60;;;30.70;80.30;;;;;;4195025;28;20710;-66
2022/02/08 07:56:33;;;;;;;18.13;13.63;;;30.70;79.10;;;;;;4192119;28;20056;-65
2022/02/08 07:58:37;;;;;;;14.15;12.65;;;30.80;79.60;;;;;;4195003;28;20098;-65
2022/02/08 08:00:42;;;;;;;14.55;12.85;;;30.80;80.60;;;;;;4195151;28;20053;-65
2022/02/08 08:02:47;;;;;;;14.93;12.70;;;30.90;80.60;;;;;;4196435;28;20056;-65
2022/02/08 08:04:53;;;;;;;15.65;13.02;;;30.90;80.20;;;;;;4197016;28;20087;-65
2022/02/08 08:06:57;;;;;;;17.23;13.43;;;31.00;79.80;;;;;;4196055;28;20055;-65
2022/02/08 08:09:02;;;;;;;14.80;13.15;;;31.00;78.70;;;;;;4189637;28;20045;-66
2022/02/08 08:11:11;;;;;;;13.95;12.48;;;31.10;77.60;;;;;;4188201;28;20123;-65
2022/02/08 08:13:18;;;;;;;16.33;13.15;;;31.10;77.70;;;;;;4196455;28;20048;-66
2022/02/08 08:17:55;;;;;;;17.08;12.57;;;31.10;76.40;;;;;;4196591;28;20044;-66
2022/02/08 08:19:59;;;;;;;17.67;13.20;;;31.10;76.50;;;;;;4193393;28;20044;-66
2022/02/08 08:22:08;;;;;;;16.20;12.85;;;31.10;77.00;;;;;;4194486;28;20044;-65
2022/02/08 08:24:13;;;;;;;15.95;13.23;;;31.10;77.20;;;;;;4196371;28;20078;-65
2022/02/08 08:26:17;;;;;;;18.48;14.07;;;31.10;76.70;;;;;;4196139;28;20410;-66
2022/02/08 08:28:22;;;;;;;17.33;13.35;;;31.20;77.50;;;;;;4195633;28;20044;-66
2022/02/08 08:30:26;;;;;;;16.02;12.48;;;31.20;77.40;;;;;;4195473;28;20037;-66
2022/02/08 08:32:30;;;;;;;15.35;13.45;;;31.30;77.50;;;;;;4194815;28;20097;-65
2022/02/08 08:34:36;;;;;;;14.68;13.18;;;31.30;77.20;;;;;;4195548;28;20072;-65
2022/02/08 08:36:42;;;;;;;20.98;14.52;;;31.40;77.20;;;;;;4196215;28;20044;-65
2022/02/08 08:38:48;;;;;;;21.20;14.40;;;31.40;77.50;;;;;;4190897;28;21169;-66
2022/02/08 08:53:45;;;;;;;37.05;24.55;;;31.20;80.10;;;;;;4195800;28;20068;-65
2022/02/08 08:55:49;;;;;;;27.95;21.52;;;31.10;80.20;;;;;;4195242;28;20098;-66
2022/02/08 08:57:53;;;;;;;23.02;17.90;;;31.10;80.30;;;;;;4196302;28;20063;-66
2022/02/08 09:00:06;;;;;;;23.02;16.83;;;31.10;80.50;;;;;;4196100;28;20127;-66
2022/02/08 09:02:11;;;;;;;23.17;14.45;;;31.00;79.60;;;;;;4196691;28;20068;-66
2022/02/08 09:04:18;;;;;;;15.93;12.90;;;31.10;78.50;;;;;;4211858;28;20482;-65
2022/02/08 09:06:22;;;;;;;17.65;13.60;;;31.10;78.20;;;;;;4195748;28;20040;-66
2022/02/08 09:08:30;;;;;;;16.80;13.50;;;31.10;78.40;;;;;;4195829;28;20048;-66
2022/02/08 09:10:48;;;;;;;15.80;13.00;;;31.10;78.70;;;;;;4192798;28;20066;-66
2022/02/08 09:13:16;;;;;;;16.00;13.60;;;31.20;78.00;;;;;;4194144;28;20049;-66
2022/02/08 09:17:37;;;;;;;17.80;14.10;;;31.20;78.00;;;;;;4184090;28;20040;-65
2022/02/08 09:30:43;;;;;;;18.40;13.60;;;31.10;78.30;;;;;;4194834;28;20032;-66
2022/02/08 09:32:52;;;;;;;14.80;13.18;;;31.10;78.10;;;;;;4196139;28;20041;-65
2022/02/08 09:34:56;;;;;;;17.73;13.48;;;31.10;78.20;;;;;;4196020;28;20053;-65
2022/02/08 09:37:00;;;;;;;18.08;14.80;;;31.10;78.70;;;;;;4194668;28;20052;-64
2022/02/08 09:39:04;;;;;;;20.10;14.75;;;31.10;79.10;;;;;;4191754;28;20147;-65
2022/02/08 09:41:11;;;;;;;18.15;13.10;;;31.10;79.10;;;;;;4179568;28;20069;-65
2022/02/08 09:43:17;;;;;;;15.35;13.15;;;31.10;78.70;;;;;;4182950;28;20127;-65
2022/02/08 09:45:23;;;;;;;23.52;12.45;;;31.10;78.00;;;;;;4196071;28;20131;-65
2022/02/08 09:47:37;;;;;;;16.88;13.32;;;31.10;78.00;;;;;;4194690;28;20356;-65
2022/02/08 09:49:52;;;;;;;19.63;14.15;;;31.10;77.70;;;;;;4195392;28;20746;-65
2022/02/08 09:52:03;;;;;;;18.40;13.18;;;31.10;77.60;;;;;;4193185;28;20080;-65
2022/02/08 09:54:08;;;;;;;17.08;13.18;;;31.10;77.30;;;;;;4194967;28;20119;-65
2022/02/08 09:56:13;;;;;;;14.70;12.52;;;31.10;78.10;;;;;;4195487;28;20052;-65
2022/02/08 09:58:17;;;;;;;18.33;14.23;;;31.10;78.30;;;;;;4197327;28;20151;-65
2022/02/08 10:00:21;;;;;;;18.27;14.00;;;31.10;77.90;;;;;;4199151;28;20060;-65
2022/02/08 10:02:27;;;;;;;18.42;16.05;;;31.10;77.80;;;;;;4199060;28;20090;-65
2022/02/08 10:04:31;;;;;;;18.77;14.43;;;31.00;77.20;;;;;;4199421;28;20044;-65
2022/02/08 10:06:40;;;;;;;19.13;15.77;;;31.00;77.30;;;;;;4198959;28;20044;-64
2022/02/08 10:08:44;;;;;;;17.33;15.48;;;31.00;77.30;;;;;;4196517;28;20074;-64
2022/02/08 10:10:50;;;;;;;20.98;17.08;;;31.00;77.40;;;;;;4182591;28;20047;-65
2022/02/08 10:22:11;;;;;;;18.23;15.40;;;30.90;78.20;;;;;;4182444;28;20455;-65
2022/02/08 10:24:17;;;;;;;19.45;15.10;;;30.90;78.30;;;;;;4181872;28;20577;-65
2022/02/08 10:26:32;;;;;;;19.85;14.30;;;30.90;78.40;;;;;;4190919;28;20068;-65
2022/02/08 10:28:54;;;;;;;18.58;14.57;;;30.90;78.70;;;;;;4198782;28;20049;-65
2022/02/08 10:38:06;;;;;;;21.05;15.48;;;30.80;79.70;;;;;;4198625;28;20175;-65
2022/02/08 10:40:13;;;;;;;21.08;14.65;;;30.80;79.90;;;;;;4191912;28;20090;-64
2022/02/08 10:42:17;;;;;;;21.27;15.98;;;30.80;80.20;;;;;;4195532;28;20158;-64
2022/02/08 10:44:21;;;;;;;22.30;16.88;;;30.80;80.50;;;;;;4192005;28;20421;-64
2022/02/08 10:46:26;;;;;;;26.02;17.83;;;30.70;80.90;;;;;;4181800;28;20065;-64
2022/02/08 10:48:30;;;;;;;27.60;18.05;;;30.70;81.40;;;;;;4182053;28;20045;-65
2022/02/08 10:50:43;;;;;;;28.55;18.33;;;30.60;81.50;;;;;;4184814;28;21565;-64
2022/02/08 10:52:47;;;;;;;28.10;18.77;;;30.60;81.70;;;;;;4198617;28;20049;-64
2022/02/08 10:54:51;;;;;;;30.23;17.73;;;30.50;82.00;;;;;;4197543;28;20044;-64
2022/02/08 10:56:59;;;;;;;46.13;20.45;;;30.50;82.30;;;;;;4196882;28;20051;-64
2022/02/08 10:59:18;;;;;;;36.72;18.75;;;30.50;83.90;;;;;;4196411;28;20117;-65
2022/02/08 11:01:28;;;;;;;33.72;19.75;;;30.40;84.00;;;;;;4182787;28;20058;-65
2022/02/08 11:03:47;;;;;;;28.33;19.98;;;30.40;84.70;;;;;;4192449;28;20135;-65
2022/02/08 11:06:07;;;;;;;33.45;22.50;;;30.30;85.20;;;;;;4188516;28;20049;-64
2022/02/08 11:13:05;;;;;;;39.65;26.00;;;30.20;86.10;;;;;;4196333;28;20052;-65
2022/02/08 11:24:56;;;;;;;44.17;27.17;;;30.00;86.70;;;;;;4195513;28;21422;-65
2022/02/08 11:27:15;;;;;;;41.00;25.02;;;30.00;86.70;;;;;;4194200;28;20051;-66
2022/02/08 11:29:36;;;;;;;39.85;24.88;;;29.90;86.60;;;;;;4195900;28;20135;-66
2022/02/08 11:31:47;;;;;;;43.60;26.05;;;29.90;86.80;;;;;;4194373;28;20056;-65
2022/02/08 11:48:29;;;;;;;41.22;26.00;;;29.60;87.60;;;;;;4195155;28;20380;-65
2022/02/08 11:52:55;;;;;;;40.75;26.98;;;29.50;87.80;;;;;;4193792;28;20453;-64
2022/02/08 12:08:28;;;;;;;45.10;35.08;;;29.30;88.80;;;;;;4195361;28;20062;-65
2022/02/08 12:10:42;;;;;;;46.35;35.13;;;29.30;89.00;;;;;;4194825;28;20092;-65
2022/02/08 12:50:41;;;;;;;58.38;41.38;;;28.80;90.60;;;;;;4195450;28;20048;-64
2022/02/08 13:14:21;;;;;;;49.65;32.30;;;28.70;91.40;;;;;;4195080;28;20110;-65
2022/02/08 13:18:52;;;;;;;46.30;30.25;;;28.60;91.70;;;;;;4195875;28;20047;-64
2022/02/08 14:01:42;;;;;;;51.10;35.30;;;28.10;92.80;;;;;;4192939;28;20044;-65
2022/02/08 14:06:04;;;;;;;55.38;37.35;;;28.10;93.00;;;;;;4194765;28;20067;-65
2022/02/08 14:10:42;;;;;;;66.65;41.35;;;28.00;93.00;;;;;;4189231;28;20502;-65
2022/02/08 14:19:38;;;;;;;62.53;39.13;;;27.90;93.20;;;;;;4189282;28;20136;-65
2022/02/08 14:22:12;;;;;;;55.30;40.30;;;27.90;93.30;;;;;;4193280;28;20495;-65
2022/02/08 14:24:21;;;;;;;56.28;38.03;;;27.90;93.30;;;;;;4178658;28;20087;-65
2022/02/08 14:31:00;;;;;;;59.65;41.03;;;27.90;93.60;;;;;;4185079;28;20069;-65
2022/02/08 15:07:57;;;;;;;55.33;39.08;;;27.60;94.10;;;;;;4181053;28;20048;-65
2022/02/08 15:09:58;;;;;;;56.25;38.80;;;27.50;94.30;;;;;;4185639;28;20524;-65
2022/02/08 15:14:15;;;;;;;55.08;38.88;;;27.40;94.40;;;;;;4195799;28;20536;-65
2022/02/08 15:16:29;;;;;;;53.33;38.13;;;27.40;94.40;;;;;;4184506;28;20059;-66
2022/02/08 15:18:34;;;;;;;60.00;40.47;;;27.40;94.40;;;;;;4193793;28;20110;-65
2022/02/08 15:20:38;;;;;;;62.45;39.50;;;27.40;94.40;;;;;;4197589;28;20431;-65
2022/02/08 15:23:04;;;;;;;59.17;40.47;;;27.40;94.50;;;;;;4196660;28;20048;-65
2022/02/08 15:25:13;;;;;;;61.40;41.60;;;27.30;94.60;;;;;;4197285;28;20054;-65
2022/02/08 15:27:20;;;;;;;65.72;41.50;;;27.30;94.60;;;;;;4197484;28;20090;-65
2022/02/08 15:29:27;;;;;;;68.10;40.97;;;27.30;94.70;;;;;;4197448;28;20079;-65
2022/02/08 15:31:33;;;;;;;62.58;40.28;;;27.30;94.60;;;;;;4197300;28;20102;-64
2022/02/08 15:33:38;;;;;;;61.55;41.20;;;27.30;94.60;;;;;;4197827;28;20051;-65
2022/02/08 15:35:42;;;;;;;61.38;41.70;;;27.30;94.70;;;;;;4197286;28;20048;-65
2022/02/08 15:37:49;;;;;;;60.08;40.58;;;27.20;94.60;;;;;;4197242;28;20052;-65
2022/02/08 15:39:53;;;;;;;64.78;41.08;;;27.30;94.60;;;;;;4190776;28;20060;-65
2022/02/08 15:41:58;;;;;;;59.47;40.13;;;27.30;94.60;;;;;;4180009;28;20060;-65
2022/02/08 15:44:03;;;;;;;53.85;40.45;;;27.20;94.70;;;;;;4189819;28;20055;-65
2022/02/08 15:46:18;;;;;;;56.20;40.33;;;27.20;94.70;;;;;;4196487;28;20037;-65
2022/02/08 15:48:23;;;;;;;65.80;39.53;;;27.20;94.70;;;;;;4196345;28;20051;-65
2022/02/08 15:50:47;;;;;;;57.25;39.40;;;27.20;94.80;;;;;;4196922;28;20040;-64
2022/02/08 15:54:59;;;;;;;60.13;38.65;;;27.20;94.90;;;;;;4195113;28;20144;-64
2022/02/08 15:57:30;;;;;;;54.97;39.17;;;27.10;94.90;;;;;;4196942;28;20048;-64
2022/02/08 16:08:35;;;;;;;57.78;38.70;;;27.00;95.10;;;;;;4186335;28;20044;-64
2022/02/08 16:11:07;;;;;;;64.20;38.95;;;26.90;95.00;;;;;;4183883;28;20790;-64
2022/02/08 16:20:10;;;;;;;52.15;37.53;;;26.90;95.30;;;;;;4196302;28;20553;-64
2022/02/08 16:28:57;;;;;;;55.92;39.13;;;26.80;95.40;;;;;;4196398;28;20783;-64
2022/02/08 16:53:32;;;;;;;56.25;36.53;;;26.60;95.90;;;;;;4196393;28;20080;-64
2022/02/08 16:55:49;;;;;;;57.45;37.65;;;26.60;95.80;;;;;;4196006;28;20048;-64
2022/02/08 17:00:14;;;;;;;49.28;36.13;;;26.60;95.90;;;;;;4195440;28;20131;-65
2022/02/08 17:02:21;;;;;;;55.38;37.28;;;26.60;96.00;;;;;;4179515;28;20525;-64
2022/02/08 17:04:26;;;;;;;58.03;38.00;;;26.50;96.10;;;;;;4179670;28;20114;-64
2022/02/08 17:06:30;;;;;;;50.47;35.65;;;26.50;96.40;;;;;;4179636;28;20106;-64
2022/02/08 17:08:35;;;;;;;50.88;36.03;;;26.40;96.50;;;;;;4179765;28;20498;-64
2022/02/08 17:10:44;;;;;;;52.50;36.55;;;26.40;96.40;;;;;;4180977;28;20045;-64
2022/02/08 17:13:03;;;;;;;43.83;35.90;;;26.50;96.40;;;;;;4196182;28;20055;-63
2022/02/08 17:46:35;;;;;;;53.45;39.25;;;26.20;97.40;;;;;;4179086;28;20053;-63
2022/02/08 17:48:39;;;;;;;55.47;39.90;;;26.20;97.60;;;;;;4179203;28;20110;-63
2022/02/08 17:50:45;;;;;;;54.78;40.80;;;26.10;97.70;;;;;;4179024;28;20049;-63
2022/02/08 17:52:50;;;;;;;51.00;40.08;;;26.10;97.90;;;;;;4182220;28;20049;-63
2022/02/08 17:54:54;;;;;;;54.25;40.83;;;26.10;98.00;;;;;;4195377;28;20091;-64
2022/02/08 17:56:59;;;;;;;53.75;40.55;;;26.10;98.10;;;;;;4195639;28;20052;-64
2022/02/08 17:59:04;;;;;;;52.17;40.70;;;26.10;98.20;;;;;;4195570;28;20076;-63
2022/02/08 18:01:08;;;;;;;58.75;39.78;;;26.00;98.20;;;;;;4195550;28;20131;-63
2022/02/08 18:03:12;;;;;;;53.40;41.05;;;26.10;98.20;;;;;;4195080;28;20040;-63
2022/02/08 18:05:17;;;;;;;50.08;39.72;;;26.10;98.20;;;;;;4195410;28;20102;-63
2022/02/08 18:07:21;;;;;;;47.95;39.97;;;26.10;98.10;;;;;;4195484;28;20083;-64
2022/02/08 18:09:28;;;;;;;52.05;40.05;;;26.00;98.10;;;;;;4193008;28;20041;-63
2022/02/08 18:11:38;;;;;;;50.85;38.60;;;26.00;98.20;;;;;;4178547;28;20131;-63
2022/02/08 18:13:45;;;;;;;47.00;38.95;;;26.00;98.20;;;;;;4198929;28;20612;-63